createdAt,value
2019-05-14T00:00:09.247Z,4.9315
2019-05-14T00:00:17.460Z,3.9626
2019-05-14T00:00:27.769Z,3.8978
2019-05-14T00:00:38.255Z,3.9798
2019-05-14T00:00:51.982Z,4.1032
2019-05-14T00:00:58.277Z,3.5964
2019-05-14T00:01:11.730Z,3.7296
2019-05-14T00:01:18.255Z,3.3386
2019-05-14T00:01:31.302Z,3.1834
2019-05-14T00:01:38.234Z,3.6218
2019-05-14T00:01:48.453Z,4.2000
2019-05-14T00:01:58.272Z,3.5951
2019-05-14T00:02:11.960Z,3.6233
2019-05-14T00:02:18.245Z,4.0136
2019-05-14T00:02:29.251Z,3.9378
2019-05-14T00:02:38.226Z,3.9560
2019-05-14T00:02:51.976Z,4.3075
2019-05-14T00:03:02.145Z,4.5103
2019-05-14T00:03:11.198Z,3.6057
2019-05-14T00:03:21.928Z,3.1689
2019-05-14T00:03:31.140Z,3.3396
2019-05-14T00:03:41.424Z,3.4694
2019-05-14T00:03:51.452Z,3.1350
2019-05-14T00:04:02.121Z,3.0912
2019-05-14T00:04:11.759Z,3.5778
2019-05-14T00:04:22.028Z,3.8465
2019-05-14T00:04:28.246Z,4.1436
2019-05-14T00:04:42.265Z,4.1305
2019-05-14T00:04:48.244Z,4.0928
2019-05-14T00:05:01.692Z,3.7658
2019-05-14T00:05:08.244Z,4.0947
2019-05-14T00:05:21.460Z,4.1164
2019-05-14T00:05:28.265Z,3.0636
2019-05-14T00:05:39.263Z,2.1907
2019-05-14T00:05:48.251Z,2.8044
2019-05-14T00:05:59.237Z,3.7087
2019-05-14T00:06:08.275Z,3.6523
2019-05-14T00:06:19.266Z,2.5944
2019-05-14T00:06:28.239Z,2.7237
2019-05-14T00:06:41.578Z,3.0611
2019-05-14T00:06:48.235Z,3.0169
2019-05-14T00:07:01.023Z,2.7700
2019-05-14T00:07:08.264Z,2.5699
2019-05-14T00:07:19.244Z,1.7824
2019-05-14T00:07:28.709Z,2.3941
2019-05-14T00:07:41.422Z,2.1696
2019-05-14T00:07:48.254Z,2.8376
2019-05-14T00:07:59.250Z,3.9076
2019-05-14T00:08:08.235Z,2.9715
2019-05-14T00:08:19.249Z,3.0278
2019-05-14T00:08:28.235Z,3.3851
2019-05-14T00:08:41.631Z,3.5277
2019-05-14T00:08:48.245Z,2.8666
2019-05-14T00:09:01.386Z,3.5302
2019-05-14T00:09:08.255Z,4.7869
2019-05-14T00:09:21.398Z,5.4457
2019-05-14T00:09:28.302Z,5.6855
2019-05-14T00:09:41.383Z,5.0113
2019-05-14T00:09:48.255Z,5.0672
2019-05-14T00:10:01.089Z,5.5212
2019-05-14T00:10:07.465Z,4.5964
2019-05-14T00:10:18.227Z,4.6998
2019-05-14T00:10:28.230Z,5.4321
2019-05-14T00:10:38.063Z,4.7981
2019-05-14T00:10:49.282Z,4.0149
2019-05-14T00:10:58.452Z,3.3256
2019-05-14T00:11:08.225Z,3.4462
2019-05-14T00:11:19.248Z,3.2674
2019-05-14T00:11:28.248Z,3.1387
2019-05-14T00:11:39.253Z,3.2241
2019-05-14T00:11:51.289Z,3.9561
2019-05-14T00:12:02.937Z,3.9364
2019-05-14T00:12:11.359Z,3.6222
2019-05-14T00:12:19.231Z,3.4393
2019-05-14T00:12:31.488Z,2.8313
2019-05-14T00:12:38.248Z,2.7377
2019-05-14T00:12:51.242Z,3.4303
2019-05-14T00:12:58.148Z,3.5059
2019-05-14T00:13:12.057Z,3.3809
2019-05-14T00:13:18.245Z,3.2424
2019-05-14T00:13:29.253Z,3.5852
2019-05-14T00:13:38.236Z,3.7405
2019-05-14T00:13:49.234Z,4.3870
2019-05-14T00:13:58.234Z,4.2721
2019-05-14T00:14:11.441Z,4.1701
2019-05-14T00:14:18.257Z,4.6766
2019-05-14T00:14:37.234Z,4.6938
2019-05-14T00:14:40.366Z,4.4969
2019-05-14T00:14:48.231Z,3.5174
2019-05-14T00:14:58.253Z,3.9224
2019-05-14T00:15:11.069Z,3.4977
2019-05-14T00:15:18.230Z,3.3919
2019-05-14T00:15:29.230Z,3.4514
2019-05-14T00:15:38.255Z,3.4828
2019-05-14T00:15:49.235Z,3.4946
2019-05-14T00:15:58.245Z,3.9782
2019-05-14T00:16:09.230Z,4.3274
2019-05-14T00:16:18.247Z,3.7562
2019-05-14T00:16:28.067Z,3.0705
2019-05-14T00:16:38.240Z,3.3876
2019-05-14T00:16:51.188Z,4.1061
2019-05-14T00:16:59.309Z,5.4507
2019-05-14T00:17:11.200Z,6.4506
2019-05-14T00:17:21.509Z,6.8011
2019-05-14T00:17:29.246Z,6.0751
2019-05-14T00:17:38.237Z,5.4133
2019-05-14T00:17:49.240Z,5.7360
2019-05-14T00:17:58.226Z,5.6117
2019-05-14T00:18:11.622Z,6.2736
2019-05-14T00:18:22.231Z,5.3220
2019-05-14T00:18:31.301Z,5.4963
2019-05-14T00:18:42.012Z,5.4294
2019-05-14T00:18:48.250Z,5.3252
2019-05-14T00:19:01.645Z,5.1839
2019-05-14T00:19:08.236Z,5.0083
2019-05-14T00:19:21.470Z,4.9568
2019-05-14T00:19:28.242Z,4.8929
2019-05-14T00:19:41.375Z,5.0687
2019-05-14T00:19:48.245Z,5.4064
2019-05-14T00:20:07.220Z,4.1895
2019-05-14T00:20:10.081Z,3.2629
2019-05-14T00:20:19.247Z,3.0665
2019-05-14T00:20:28.241Z,3.6554
2019-05-14T00:20:39.247Z,4.5843
2019-05-14T00:20:48.237Z,5.5883
2019-05-14T00:21:01.455Z,5.1948
2019-05-14T00:21:08.275Z,5.1540
2019-05-14T00:21:21.136Z,4.2869
2019-05-14T00:21:28.236Z,4.4605
2019-05-14T00:21:39.239Z,4.0518
2019-05-14T00:21:48.250Z,4.2904
2019-05-14T00:21:59.270Z,4.0355
2019-05-14T00:22:08.250Z,4.0634
2019-05-14T00:22:19.245Z,4.8352
2019-05-14T00:22:28.243Z,4.1163
2019-05-14T00:22:38.695Z,4.0884
2019-05-14T00:22:48.246Z,4.9067
2019-05-14T00:23:01.258Z,4.3888
2019-05-14T00:23:08.253Z,4.1203
2019-05-14T00:23:21.487Z,4.6887
2019-05-14T00:23:28.270Z,5.3062
2019-05-14T00:23:39.252Z,5.3679
2019-05-14T00:23:48.241Z,5.6681
2019-05-14T00:23:59.245Z,5.0543
2019-05-14T00:24:08.259Z,4.6886
2019-05-14T00:24:21.580Z,5.0255
2019-05-14T00:24:32.330Z,5.2671
2019-05-14T00:24:41.270Z,4.9587
2019-05-14T00:24:51.948Z,4.8975
2019-05-14T00:24:58.257Z,4.1153
2019-05-14T00:25:11.700Z,4.1825
2019-05-14T00:25:18.284Z,4.6415
2019-05-14T00:25:31.330Z,3.8335
2019-05-14T00:25:38.252Z,3.6991
2019-05-14T00:25:49.254Z,4.0904
2019-05-14T00:25:58.262Z,3.9097
2019-05-14T00:26:09.242Z,3.7029
2019-05-14T00:26:18.241Z,4.0052
2019-05-14T00:26:29.256Z,3.8588
2019-05-14T00:26:38.257Z,4.1959
2019-05-14T00:26:51.564Z,4.5205
2019-05-14T00:26:58.259Z,3.8517
2019-05-14T00:27:11.358Z,4.0310
2019-05-14T00:27:21.827Z,4.4298
2019-05-14T00:27:31.064Z,4.8309
2019-05-14T00:27:38.246Z,5.2611
2019-05-14T00:27:49.226Z,4.0607
2019-05-14T00:27:58.254Z,4.1793
2019-05-14T00:28:09.246Z,3.9591
2019-05-14T00:28:18.226Z,3.6237
2019-05-14T00:28:31.543Z,4.3164
2019-05-14T00:28:38.227Z,5.0430
2019-05-14T00:28:51.037Z,5.1682
2019-05-14T00:28:58.236Z,5.0727
2019-05-14T00:29:08.105Z,5.1263
2019-05-14T00:29:17.467Z,4.6333
2019-05-14T00:29:29.241Z,4.6711
2019-05-14T00:29:41.450Z,4.3101
2019-05-14T00:29:51.588Z,3.9182
2019-05-14T00:29:58.248Z,4.3618
2019-05-14T00:30:11.328Z,3.6532
2019-05-14T00:30:18.245Z,3.7792
2019-05-14T00:30:31.632Z,3.8416
2019-05-14T00:30:38.214Z,3.7533
2019-05-14T00:30:49.257Z,5.3581
2019-05-14T00:31:02.922Z,5.6780
2019-05-14T00:31:09.232Z,4.6333
2019-05-14T00:31:21.347Z,4.2534
2019-05-14T00:31:28.239Z,4.5941
2019-05-14T00:31:42.530Z,3.5856
2019-05-14T00:31:48.270Z,3.4880
2019-05-14T00:31:59.258Z,3.0445
2019-05-14T00:32:08.250Z,3.1046
2019-05-14T00:32:21.868Z,3.4269
2019-05-14T00:32:28.235Z,3.9873
2019-05-14T00:32:41.442Z,4.1353
2019-05-14T00:32:48.257Z,5.2596
2019-05-14T00:33:01.210Z,5.0635
2019-05-14T00:33:12.237Z,4.8197
2019-05-14T00:33:19.245Z,4.3612
2019-05-14T00:33:28.259Z,4.9330
2019-05-14T00:33:39.255Z,4.5239
2019-05-14T00:33:48.379Z,3.6189
2019-05-14T00:34:01.621Z,3.5054
2019-05-14T00:34:11.741Z,4.3139
2019-05-14T00:34:21.347Z,4.5571
2019-05-14T00:34:28.237Z,4.2361
2019-05-14T00:34:39.234Z,4.1055
2019-05-14T00:34:48.254Z,4.1348
2019-05-14T00:34:59.250Z,4.2594
2019-05-14T00:35:08.243Z,5.2056
2019-05-14T00:35:21.371Z,5.6005
2019-05-14T00:35:29.326Z,4.6128
2019-05-14T00:35:41.203Z,3.5976
2019-05-14T00:35:51.293Z,3.9817
2019-05-14T00:35:59.242Z,4.4319
2019-05-14T00:36:08.247Z,3.8062
2019-05-14T00:36:21.574Z,3.8076
2019-05-14T00:36:28.268Z,5.6245
2019-05-14T00:36:41.747Z,5.1734
2019-05-14T00:36:52.418Z,4.3716
2019-05-14T00:37:01.403Z,4.7237
2019-05-14T00:37:11.494Z,4.9654
2019-05-14T00:37:21.629Z,4.7108
2019-05-14T00:37:32.173Z,4.4598
2019-05-14T00:37:41.495Z,4.7181
2019-05-14T00:37:49.230Z,4.1271
2019-05-14T00:37:58.244Z,3.4564
2019-05-14T00:38:08.777Z,2.8840
2019-05-14T00:38:18.236Z,5.5810
2019-05-14T00:38:31.371Z,7.0589
2019-05-14T00:38:38.248Z,6.9537
2019-05-14T00:38:51.184Z,5.7873
2019-05-14T00:38:57.896Z,4.4024
2019-05-14T00:39:11.210Z,5.0044
2019-05-14T00:39:18.230Z,5.1027
2019-05-14T00:39:29.257Z,5.1902
2019-05-14T00:39:38.246Z,5.0309
2019-05-14T00:39:49.267Z,5.6758
2019-05-14T00:39:58.247Z,6.2487
2019-05-14T00:40:11.580Z,6.0451
2019-05-14T00:40:18.258Z,5.6697
2019-05-14T00:40:31.238Z,5.3752
2019-05-14T00:40:38.268Z,5.1274
2019-05-14T00:40:51.191Z,4.4547
2019-05-14T00:40:58.228Z,4.7187
2019-05-14T00:41:11.148Z,4.5117
2019-05-14T00:41:18.261Z,4.7367
2019-05-14T00:41:31.144Z,3.7884
2019-05-14T00:41:42.720Z,4.0014
2019-05-14T00:41:51.059Z,4.3288
2019-05-14T00:41:58.261Z,4.2136
2019-05-14T00:42:09.244Z,4.8605
2019-05-14T00:42:18.260Z,4.9403
2019-05-14T00:42:29.241Z,5.3071
2019-05-14T00:42:41.134Z,4.8657
2019-05-14T00:42:49.283Z,4.4625
2019-05-14T00:42:58.263Z,5.0190
2019-05-14T00:43:11.270Z,4.4356
2019-05-14T00:43:21.523Z,4.2593
2019-05-14T00:43:29.217Z,5.1333
2019-05-14T00:43:41.567Z,6.1550
2019-05-14T00:43:51.203Z,5.5432
2019-05-14T00:44:01.960Z,5.7823
2019-05-14T00:44:08.255Z,6.5858
2019-05-14T00:44:21.540Z,6.1843
2019-05-14T00:44:28.249Z,5.3840
2019-05-14T00:44:53.513Z,3.8505
2019-05-14T00:44:54.617Z,3.9903
2019-05-14T00:44:58.263Z,4.5525
2019-05-14T00:45:08.229Z,4.8644
2019-05-14T00:45:19.239Z,4.5515
2019-05-14T00:45:28.252Z,4.7228
2019-05-14T00:45:41.609Z,4.7438
2019-05-14T00:45:48.273Z,4.0384
2019-05-14T00:46:01.509Z,3.6357
2019-05-14T00:46:08.254Z,3.9351
2019-05-14T00:46:21.157Z,3.5143
2019-05-14T00:46:28.224Z,2.5526
2019-05-14T00:46:41.069Z,3.3023
2019-05-14T00:46:48.267Z,3.9679
2019-05-14T00:47:03.745Z,5.7523
2019-05-14T00:47:08.226Z,6.0822
2019-05-14T00:47:21.576Z,6.7617
2019-05-14T00:47:28.243Z,5.8377
2019-05-14T00:47:41.571Z,4.6295
2019-05-14T00:47:48.241Z,4.7130
2019-05-14T00:48:01.312Z,4.5289
2019-05-14T00:48:08.254Z,4.5577
2019-05-14T00:48:18.180Z,4.9585
2019-05-14T00:48:31.772Z,4.4370
2019-05-14T00:48:39.269Z,4.3747
2019-05-14T00:48:48.242Z,4.6312
2019-05-14T00:48:58.451Z,5.1699
2019-05-14T00:49:08.251Z,5.0978
2019-05-14T00:49:21.124Z,5.2777
2019-05-14T00:49:31.678Z,5.1965
2019-05-14T00:49:42.258Z,5.8488
2019-05-14T00:49:53.821Z,4.2643
2019-05-14T00:50:02.718Z,4.7789
2019-05-14T00:50:11.253Z,5.1565
2019-05-14T00:50:18.259Z,4.8765
2019-05-14T00:50:31.676Z,4.7608
2019-05-14T00:50:38.230Z,4.3384
2019-05-14T00:50:51.435Z,5.1537
2019-05-14T00:50:58.248Z,5.4726
2019-05-14T00:51:13.735Z,4.0251
2019-05-14T00:51:18.227Z,3.2902
2019-05-14T00:51:29.259Z,4.0157
2019-05-14T00:51:38.258Z,5.8165
2019-05-14T00:51:49.250Z,6.2399
2019-05-14T00:51:58.256Z,5.6943
2019-05-14T00:52:11.502Z,5.4428
2019-05-14T00:52:18.231Z,4.8290
2019-05-14T00:52:31.367Z,5.2427
2019-05-14T00:52:38.276Z,5.6805
2019-05-14T00:52:51.491Z,5.8986
2019-05-14T00:52:58.243Z,4.6599
2019-05-14T00:53:11.676Z,4.5326
2019-05-14T00:53:18.231Z,4.4582
2019-05-14T00:53:31.808Z,4.1344
2019-05-14T00:53:38.250Z,4.1125
2019-05-14T00:53:53.705Z,3.5022
2019-05-14T00:53:58.237Z,3.4980
2019-05-14T00:54:11.135Z,3.4522
2019-05-14T00:54:18.246Z,3.1767
2019-05-14T00:54:29.233Z,3.2441
2019-05-14T00:54:38.242Z,3.4918
2019-05-14T00:54:49.254Z,3.4685
2019-05-14T00:54:58.266Z,3.8610
2019-05-14T00:55:08.203Z,4.9583
2019-05-14T00:55:18.249Z,5.2195
2019-05-14T00:55:28.745Z,3.9416
2019-05-14T00:55:42.098Z,2.9960
2019-05-14T00:55:51.346Z,2.7363
2019-05-14T00:55:58.237Z,3.1555
2019-05-14T00:56:08.414Z,3.8344
2019-05-14T00:56:19.032Z,4.2500
2019-05-14T00:56:31.973Z,4.8981
2019-05-14T00:56:38.253Z,5.4020
2019-05-14T00:56:51.983Z,4.4831
2019-05-14T00:57:01.462Z,4.3468
2019-05-14T00:57:11.579Z,3.4123
2019-05-14T00:57:21.114Z,3.1490
2019-05-14T00:57:28.251Z,3.3481
2019-05-14T00:57:42.583Z,3.9136
2019-05-14T00:57:48.247Z,4.9904
2019-05-14T00:57:59.249Z,5.2284
2019-05-14T00:58:12.277Z,5.2197
2019-05-14T00:58:21.583Z,4.6135
2019-05-14T00:58:28.232Z,4.0965
2019-05-14T00:58:41.342Z,3.9843
2019-05-14T00:58:48.230Z,3.7649
2019-05-14T00:59:01.251Z,3.1966
2019-05-14T00:59:08.232Z,3.3505
2019-05-14T00:59:21.512Z,3.8567
2019-05-14T00:59:28.244Z,3.9635
2019-05-14T00:59:41.437Z,4.2443
2019-05-14T00:59:48.238Z,3.9248
2019-05-14T01:00:01.092Z,3.5432
2019-05-14T01:00:08.244Z,3.1915
2019-05-14T01:00:19.246Z,4.2207
2019-05-14T01:00:28.250Z,4.2620
2019-05-14T01:00:39.237Z,3.9687
2019-05-14T01:00:48.257Z,4.1877
2019-05-14T01:01:01.338Z,4.3897
2019-05-14T01:01:08.249Z,4.1555
2019-05-14T01:01:21.329Z,4.2700
2019-05-14T01:01:28.245Z,4.0013
2019-05-14T01:01:37.712Z,4.0414
2019-05-14T01:01:51.445Z,3.3201
2019-05-14T01:01:59.250Z,4.0151
2019-05-14T01:02:08.223Z,4.0919
2019-05-14T01:02:21.624Z,4.0134
2019-05-14T01:02:28.262Z,4.5815
2019-05-14T01:02:38.443Z,5.2645
2019-05-14T01:02:48.239Z,5.0646
2019-05-14T01:02:59.259Z,4.8566
2019-05-14T01:03:08.249Z,4.3378
2019-05-14T01:03:21.575Z,4.4906
2019-05-14T01:03:32.309Z,5.5599
2019-05-14T01:03:41.355Z,5.2869
2019-05-14T01:03:52.101Z,4.8779
2019-05-14T01:03:58.241Z,3.9423
2019-05-14T01:04:11.739Z,4.1220
2019-05-14T01:04:18.263Z,4.0524
2019-05-14T01:04:31.207Z,5.0118
2019-05-14T01:04:38.232Z,4.7245
2019-05-14T01:04:51.384Z,5.5412
2019-05-14T01:04:58.244Z,5.4397
2019-05-14T01:05:09.238Z,4.8572
2019-05-14T01:05:18.224Z,5.4423
2019-05-14T01:05:29.253Z,5.2423
2019-05-14T01:05:38.273Z,4.5296
2019-05-14T01:05:49.270Z,4.4066
2019-05-14T01:05:58.231Z,5.2557
2019-05-14T01:06:11.294Z,4.8224
2019-05-14T01:06:18.261Z,4.0535
2019-05-14T01:06:31.522Z,3.7132
2019-05-14T01:06:38.223Z,4.9177
2019-05-14T01:06:51.141Z,5.2314
2019-05-14T01:06:58.241Z,5.9986
2019-05-14T01:07:11.672Z,5.4074
2019-05-14T01:07:18.258Z,5.1254
2019-05-14T01:07:33.787Z,3.1520
2019-05-14T01:07:38.246Z,2.6492
2019-05-14T01:07:51.210Z,3.5240
2019-05-14T01:07:58.261Z,3.1280
2019-05-14T01:08:09.247Z,3.8217
2019-05-14T01:08:18.249Z,4.1836
2019-05-14T01:08:29.237Z,3.8529
2019-05-14T01:08:38.258Z,4.1363
2019-05-14T01:08:49.241Z,4.5038
2019-05-14T01:08:58.250Z,5.3093
2019-05-14T01:09:11.291Z,5.4163
2019-05-14T01:09:22.817Z,4.7928
2019-05-14T01:09:31.464Z,4.7094
2019-05-14T01:09:38.248Z,4.4614
2019-05-14T01:09:48.188Z,5.7616
2019-05-14T01:09:58.244Z,5.7362
2019-05-14T01:10:08.728Z,5.7285
2019-05-14T01:10:18.293Z,5.8031
2019-05-14T01:10:31.343Z,5.4811
2019-05-14T01:10:41.779Z,4.9770
2019-05-14T01:10:51.158Z,5.0980
2019-05-14T01:11:01.588Z,5.1012
2019-05-14T01:11:08.254Z,4.6265
2019-05-14T01:11:21.956Z,4.3169
2019-05-14T01:11:28.249Z,4.6535
2019-05-14T01:11:39.242Z,4.9900
2019-05-14T01:11:48.237Z,3.9279
2019-05-14T01:12:01.627Z,3.8810
2019-05-14T01:12:08.254Z,4.9730
2019-05-14T01:12:21.267Z,5.3482
2019-05-14T01:12:28.255Z,5.4379
2019-05-14T01:12:41.357Z,4.7463
2019-05-14T01:12:48.245Z,4.0802
2019-05-14T01:13:01.179Z,3.4271
2019-05-14T01:13:08.247Z,3.7803
2019-05-14T01:13:19.246Z,3.1493
2019-05-14T01:13:31.297Z,2.7914
2019-05-14T01:13:41.494Z,4.6792
2019-05-14T01:13:48.220Z,7.0514
2019-05-14T01:14:01.497Z,7.1341
2019-05-14T01:14:08.235Z,6.5804
2019-05-14T01:14:21.123Z,5.6031
2019-05-14T01:14:28.267Z,5.0791
2019-05-14T01:14:39.252Z,5.1176
2019-05-14T01:14:51.485Z,4.3105
2019-05-14T01:15:07.786Z,3.7212
2019-05-14T01:15:13.286Z,4.2672
2019-05-14T01:15:21.506Z,5.3640
2019-05-14T01:15:28.255Z,5.5145
2019-05-14T01:15:41.487Z,5.2908
2019-05-14T01:15:52.116Z,4.6402
2019-05-14T01:16:01.351Z,4.9184
2019-05-14T01:16:12.066Z,5.2010
2019-05-14T01:16:19.216Z,5.3115
2019-05-14T01:16:31.794Z,4.6165
2019-05-14T01:16:38.251Z,4.0640
2019-05-14T01:16:51.350Z,4.2444
2019-05-14T01:16:58.232Z,3.9347
2019-05-14T01:17:11.193Z,3.3726
2019-05-14T01:17:22.785Z,3.6795
2019-05-14T01:17:31.170Z,4.1671
2019-05-14T01:17:38.246Z,5.0773
2019-05-14T01:17:51.381Z,5.2878
2019-05-14T01:17:58.226Z,4.5315
2019-05-14T01:18:11.302Z,5.5944
2019-05-14T01:18:18.249Z,6.2603
2019-05-14T01:18:28.130Z,6.2136
2019-05-14T01:18:42.782Z,5.3376
2019-05-14T01:18:52.809Z,5.7520
2019-05-14T01:18:58.245Z,6.3028
2019-05-14T01:19:13.775Z,4.6682
2019-05-14T01:19:18.255Z,4.0490
2019-05-14T01:19:31.477Z,3.7711
2019-05-14T01:19:38.246Z,3.6849
2019-05-14T01:19:51.271Z,4.8423
2019-05-14T01:19:58.233Z,5.0936
2019-05-14T01:20:09.246Z,4.9758
2019-05-14T01:20:18.244Z,5.3605
2019-05-14T01:20:29.234Z,5.2408
2019-05-14T01:20:38.255Z,4.5746
2019-05-14T01:20:51.692Z,4.6318
2019-05-14T01:20:58.238Z,4.7019
2019-05-14T01:21:11.500Z,5.2860
2019-05-14T01:21:18.279Z,4.8905
2019-05-14T01:21:28.473Z,4.7575
2019-05-14T01:21:39.149Z,4.8982
2019-05-14T01:21:51.055Z,4.4603
2019-05-14T01:21:58.219Z,4.0456
2019-05-14T01:22:12.232Z,4.6113
2019-05-14T01:22:21.286Z,4.3314
2019-05-14T01:22:31.592Z,4.0555
2019-05-14T01:22:42.228Z,3.9231
2019-05-14T01:22:48.237Z,4.4573
2019-05-14T01:23:02.196Z,4.4113
2019-05-14T01:23:08.251Z,3.9906
2019-05-14T01:23:23.747Z,6.8660
2019-05-14T01:23:28.231Z,6.3813
2019-05-14T01:23:41.362Z,4.9920
2019-05-14T01:23:48.238Z,4.7265
2019-05-14T01:24:02.034Z,5.1888
2019-05-14T01:24:08.236Z,4.8879
2019-05-14T01:24:21.447Z,4.4193
2019-05-14T01:24:28.258Z,4.9608
2019-05-14T01:24:41.448Z,4.7745
2019-05-14T01:24:48.245Z,4.2541
2019-05-14T01:25:01.456Z,3.7390
2019-05-14T01:25:08.262Z,3.5235
2019-05-14T01:25:19.267Z,3.7443
2019-05-14T01:25:28.251Z,3.4798
2019-05-14T01:25:39.234Z,3.8277
2019-05-14T01:25:48.265Z,3.7501
2019-05-14T01:25:59.240Z,5.4731
2019-05-14T01:26:08.265Z,4.9433
2019-05-14T01:26:21.597Z,4.5430
2019-05-14T01:26:28.226Z,3.9733
2019-05-14T01:26:41.476Z,4.5523
2019-05-14T01:26:48.267Z,6.2000
2019-05-14T01:26:58.820Z,7.5674
2019-05-14T01:27:08.240Z,7.2617
2019-05-14T01:27:18.141Z,6.6630
2019-05-14T01:27:28.263Z,4.9429
2019-05-14T01:27:41.367Z,4.4247
2019-05-14T01:27:48.237Z,3.5533
2019-05-14T01:27:59.233Z,2.8613
2019-05-14T01:28:11.211Z,3.3742
2019-05-14T01:28:21.436Z,3.2007
2019-05-14T01:28:32.173Z,3.9346
2019-05-14T01:28:41.554Z,4.4153
2019-05-14T01:28:51.377Z,3.9880
2019-05-14T01:29:01.253Z,4.5401
2019-05-14T01:29:11.972Z,4.2879
2019-05-14T01:29:18.247Z,3.8427
2019-05-14T01:29:31.658Z,4.1639
2019-05-14T01:29:38.247Z,4.0012
2019-05-14T01:29:51.204Z,4.3338
2019-05-14T01:29:58.249Z,4.3627
2019-05-14T01:30:09.251Z,3.3822
2019-05-14T01:30:18.249Z,4.0571
2019-05-14T01:30:29.237Z,5.2289
2019-05-14T01:30:38.250Z,5.5407
2019-05-14T01:30:51.608Z,5.0668
2019-05-14T01:30:58.236Z,5.7006
2019-05-14T01:31:11.192Z,6.3167
2019-05-14T01:31:18.267Z,6.1590
2019-05-14T01:31:31.284Z,5.9421
2019-05-14T01:31:38.362Z,5.3403
2019-05-14T01:31:49.233Z,5.0890
2019-05-14T01:31:57.679Z,4.2274
2019-05-14T01:32:11.468Z,4.2184
2019-05-14T01:32:18.263Z,3.8243
2019-05-14T01:32:31.373Z,3.7561
2019-05-14T01:32:38.238Z,4.2006
2019-05-14T01:32:51.156Z,4.6582
2019-05-14T01:32:57.479Z,4.8323
2019-05-14T01:33:09.252Z,4.4352
2019-05-14T01:33:18.241Z,4.3547
2019-05-14T01:33:28.339Z,5.1874
2019-05-14T01:33:38.252Z,5.2007
2019-05-14T01:33:51.400Z,5.0285
2019-05-14T01:34:02.248Z,4.4551
2019-05-14T01:34:11.201Z,4.1699
2019-05-14T01:34:21.603Z,4.0010
2019-05-14T01:34:32.176Z,3.7398
2019-05-14T01:34:41.978Z,4.0020
2019-05-14T01:34:48.233Z,4.1633
2019-05-14T01:35:01.394Z,4.1237
2019-05-14T01:35:08.237Z,5.2194
2019-05-14T01:35:19.232Z,5.4645
2019-05-14T01:35:28.244Z,6.0728
2019-05-14T01:35:42.046Z,5.2211
2019-05-14T01:35:48.227Z,4.6431
2019-05-14T01:35:59.262Z,4.6400
2019-05-14T01:36:08.234Z,4.1476
2019-05-14T01:36:21.342Z,4.9376
2019-05-14T01:36:28.259Z,4.2708
2019-05-14T01:36:41.732Z,3.0638
2019-05-14T01:36:48.283Z,3.0827
2019-05-14T01:36:59.258Z,3.8451
2019-05-14T01:37:11.661Z,4.5132
2019-05-14T01:37:21.705Z,4.1549
2019-05-14T01:37:32.737Z,4.5912
2019-05-14T01:37:41.816Z,5.1328
2019-05-14T01:37:48.232Z,5.9053
2019-05-14T01:37:58.661Z,5.0494
2019-05-14T01:38:08.237Z,5.0019
2019-05-14T01:38:19.247Z,5.4740
2019-05-14T01:38:27.481Z,5.1367
2019-05-14T01:38:37.787Z,4.8963
2019-05-14T01:38:48.229Z,5.1856
2019-05-14T01:39:01.612Z,4.9444
2019-05-14T01:39:08.238Z,4.5248
2019-05-14T01:39:21.214Z,3.3951
2019-05-14T01:39:28.239Z,3.3822
2019-05-14T01:39:41.765Z,3.9536
2019-05-14T01:39:52.023Z,5.0927
2019-05-14T01:40:01.202Z,4.9799
2019-05-14T01:40:11.422Z,4.6039
2019-05-14T01:40:18.251Z,4.1962
2019-05-14T01:40:31.558Z,5.2317
2019-05-14T01:40:38.243Z,5.7182
2019-05-14T01:40:49.249Z,5.3223
2019-05-14T01:40:58.235Z,5.0472
2019-05-14T01:41:11.690Z,4.5298
2019-05-14T01:41:18.241Z,4.9054
2019-05-14T01:41:31.544Z,4.9101
2019-05-14T01:41:38.254Z,5.3762
2019-05-14T01:41:51.480Z,4.6542
2019-05-14T01:41:58.253Z,4.3755
2019-05-14T01:42:09.259Z,4.7849
2019-05-14T01:42:18.249Z,5.6524
2019-05-14T01:42:27.741Z,6.0962
2019-05-14T01:42:38.248Z,5.4943
2019-05-14T01:42:52.047Z,5.9226
2019-05-14T01:43:02.638Z,5.1532
2019-05-14T01:43:11.395Z,4.9204
2019-05-14T01:43:18.255Z,4.3190
2019-05-14T01:43:31.290Z,4.4430
2019-05-14T01:43:38.239Z,4.6016
2019-05-14T01:43:51.248Z,4.6748
2019-05-14T01:43:58.264Z,4.8951
2019-05-14T01:44:09.246Z,4.4278
2019-05-14T01:44:21.210Z,4.2266
2019-05-14T01:44:28.488Z,4.2543
2019-05-14T01:44:41.089Z,4.3900
2019-05-14T01:44:51.685Z,3.8544
2019-05-14T01:44:58.242Z,5.1915
2019-05-14T01:45:23.533Z,5.0447
2019-05-14T01:45:25.077Z,5.0071
2019-05-14T01:45:31.457Z,4.8533
2019-05-14T01:45:41.733Z,5.0050
2019-05-14T01:45:49.239Z,5.8531
2019-05-14T01:46:02.002Z,5.6927
2019-05-14T01:46:09.257Z,5.6920
2019-05-14T01:46:21.024Z,6.9713
2019-05-14T01:46:28.233Z,6.8287
2019-05-14T01:46:42.043Z,6.3536
2019-05-14T01:46:48.236Z,6.8748
2019-05-14T01:46:59.243Z,6.1367
2019-05-14T01:47:08.248Z,4.8884
2019-05-14T01:47:21.302Z,4.1777
2019-05-14T01:47:28.258Z,3.8103
2019-05-14T01:47:41.372Z,4.3326
2019-05-14T01:47:48.248Z,4.6559
2019-05-14T01:48:01.233Z,5.8168
2019-05-14T01:48:08.252Z,5.3201
2019-05-14T01:48:19.254Z,4.7375
2019-05-14T01:48:28.244Z,4.1723
2019-05-14T01:48:41.616Z,5.8727
2019-05-14T01:48:48.248Z,6.3930
2019-05-14T01:49:01.377Z,5.7085
2019-05-14T01:49:12.721Z,4.6766
2019-05-14T01:49:19.242Z,4.3188
2019-05-14T01:49:28.236Z,5.1429
2019-05-14T01:49:39.221Z,7.1499
2019-05-14T01:49:48.237Z,5.8816
2019-05-14T01:49:58.739Z,5.1612
2019-05-14T01:50:08.231Z,5.0797
2019-05-14T01:50:21.445Z,6.3202
2019-05-14T01:50:28.245Z,6.3841
2019-05-14T01:50:41.251Z,5.7795
2019-05-14T01:50:47.486Z,6.3269
2019-05-14T01:51:01.316Z,6.7613
2019-05-14T01:51:08.246Z,4.9149
2019-05-14T01:51:18.151Z,4.1855
2019-05-14T01:51:28.256Z,4.4977
2019-05-14T01:51:39.226Z,3.9013
2019-05-14T01:51:51.052Z,4.1087
2019-05-14T01:52:01.580Z,4.3691
2019-05-14T01:52:11.271Z,4.9816
2019-05-14T01:52:21.790Z,4.7348
2019-05-14T01:52:31.788Z,3.3596
2019-05-14T01:52:38.256Z,3.4352
2019-05-14T01:52:52.034Z,4.3172
2019-05-14T01:52:58.250Z,3.5382
2019-05-14T01:53:11.411Z,3.4290
2019-05-14T01:53:18.236Z,4.0658
2019-05-14T01:53:31.256Z,3.9921
2019-05-14T01:53:38.252Z,4.0783
2019-05-14T01:53:49.261Z,4.6928
2019-05-14T01:53:58.231Z,6.0020
2019-05-14T01:54:09.231Z,5.5288
2019-05-14T01:54:18.255Z,5.0896
2019-05-14T01:54:31.524Z,5.4488
2019-05-14T01:54:38.246Z,4.9809
2019-05-14T01:54:51.329Z,4.4657
2019-05-14T01:54:58.266Z,4.2634
2019-05-14T01:55:11.216Z,4.3355
2019-05-14T01:55:18.247Z,3.8119
2019-05-14T01:55:29.258Z,5.0024
2019-05-14T01:55:38.260Z,5.6832
2019-05-14T01:55:49.254Z,5.0497
2019-05-14T01:55:58.224Z,5.3039
2019-05-14T01:56:09.244Z,4.9448
2019-05-14T01:56:18.766Z,5.1623
2019-05-14T01:56:33.847Z,4.7055
2019-05-14T01:56:38.239Z,4.4919
2019-05-14T01:56:51.312Z,4.3116
2019-05-14T01:57:01.927Z,3.8865
2019-05-14T01:57:11.306Z,4.2828
2019-05-14T01:57:18.226Z,4.0968
2019-05-14T01:57:31.213Z,5.2072
2019-05-14T01:57:38.249Z,4.9897
2019-05-14T01:57:51.573Z,4.2567
2019-05-14T01:58:02.352Z,4.3948
2019-05-14T01:58:11.970Z,5.1314
2019-05-14T01:58:22.046Z,4.9665
2019-05-14T01:58:31.131Z,4.8875
2019-05-14T01:58:41.765Z,4.4237
2019-05-14T01:58:48.259Z,3.6481
2019-05-14T01:59:01.637Z,3.8107
2019-05-14T01:59:08.241Z,4.0562
2019-05-14T01:59:21.347Z,4.2798
2019-05-14T01:59:28.244Z,4.5731
2019-05-14T01:59:39.245Z,4.6172
2019-05-14T01:59:48.249Z,5.2188
2019-05-14T01:59:59.227Z,4.8002
2019-05-14T02:00:08.241Z,5.0985
2019-05-14T02:00:19.235Z,5.0677
2019-05-14T02:00:28.301Z,4.3274
2019-05-14T02:00:41.473Z,4.2343
2019-05-14T02:00:48.262Z,4.9376
2019-05-14T02:01:01.706Z,6.1743
2019-05-14T02:01:08.254Z,5.8150
2019-05-14T02:01:21.692Z,6.3429
2019-05-14T02:01:28.250Z,5.4827
2019-05-14T02:01:41.494Z,5.0218
2019-05-14T02:01:48.256Z,5.2288
2019-05-14T02:01:59.266Z,4.9476
2019-05-14T02:02:08.242Z,4.6892
2019-05-14T02:02:19.237Z,4.5662
2019-05-14T02:02:28.246Z,5.1127
2019-05-14T02:02:41.573Z,5.6361
2019-05-14T02:02:48.242Z,5.6166
2019-05-14T02:03:01.578Z,4.7486
2019-05-14T02:03:08.246Z,5.2187
2019-05-14T02:03:21.358Z,5.7186
2019-05-14T02:03:28.246Z,4.9379
2019-05-14T02:03:41.133Z,5.3993
2019-05-14T02:03:48.237Z,4.9433
2019-05-14T02:03:59.267Z,4.4816
2019-05-14T02:04:08.275Z,4.0650
2019-05-14T02:04:19.237Z,3.8040
2019-05-14T02:04:28.256Z,3.5313
2019-05-14T02:04:42.948Z,4.4263
2019-05-14T02:04:51.304Z,5.5972